Time;durP1;ratioP1;P1;durP2;ratioP2;P2;SDS_P1;SDS_P2;PMS_P1;PMS_P2;Temp;Humidity;BMP_temperature;BMP_pressure;BME280_temperature;BME280_humidity;BME280_pressure;Samples;Min_cycle;Max_cycle;Signal;HPM_P1;HPM_P2
2023/07/27 00:00:49;;;;;;;5.03;2.53;;;;;;;21.66;55.58;101021.13;5019526;28;20120;-81
2023/07/27 00:03:18;;;;;;;5.22;2.42;;;;;;;21.71;56.00;101015.69;5027477;28;20034;-81
2023/07/27 00:05:46;;;;;;;5.25;2.40;;;;;;;21.63;56.25;101010.63;5036429;28;20048;-80
2023/07/27 00:08:14;;;;;;;5.25;2.15;;;;;;;21.70;56.28;101012.19;5036490;28;20029;-79
2023/07/27 00:10:45;;;;;;;6.18;2.47;;;;;;;21.49;57.63;100999.53;5028192;28;20105;-81
2023/07/27 00:13:11;;;;;;;7.30;2.50;;;;;;;21.28;59.20;101005.47;5024162;28;20037;-80
2023/07/27 00:15:39;;;;;;;4.43;2.17;;;;;;;21.39;59.30;101006.03;5019531;28;20033;-81
2023/07/27 00:18:04;;;;;;;4.75;2.00;;;;;;;21.44;59.21;101004.97;5020470;28;20093;-80
2023/07/27 00:20:30;;;;;;;4.63;2.10;;;;;;;21.44;59.35;101006.75;5028306;28;20065;-80
2023/07/27 00:22:55;;;;;;;5.28;2.30;;;;;;;21.17;60.62;100996.94;5035362;28;20454;-80
2023/07/27 00:25:20;;;;;;;6.78;2.15;;;;;;;21.36;60.09;101001.69;5035229;28;20041;-80
2023/07/27 00:27:46;;;;;;;4.90;2.28;;;;;;;21.15;61.27;101004.06;5034823;28;20057;-81
2023/07/27 00:30:12;;;;;;;4.93;2.33;;;;;;;20.98;61.94;100997.41;5028408;28;20411;-80
2023/07/27 00:32:38;;;;;;;4.07;2.20;;;;;;;20.90;63.09;101001.19;5018220;28;20092;-79
2023/07/27 00:35:06;;;;;;;7.25;2.58;;;;;;;20.97;63.17;100994.81;5032369;28;20018;-80
2023/07/27 00:37:52;;;;;;;4.47;2.35;;;;;;;20.94;63.10;100992.25;5030037;28;20045;-79
2023/07/27 00:40:20;;;;;;;5.70;2.60;;;;;;;20.83;63.01;100994.31;5019660;28;20050;-81
2023/07/27 00:42:46;;;;;;;4.70;2.42;;;;;;;20.69;64.10;100986.72;5016479;28;20040;-79
2023/07/27 00:45:14;;;;;;;4.80;2.33;;;;;;;20.65;63.96;100983.31;5017720;28;20086;-81
2023/07/27 00:47:40;;;;;;;9.55;2.70;;;;;;;20.55;64.45;100979.13;5018610;28;20592;-80
2023/07/27 00:50:06;;;;;;;3.90;2.38;;;;;;;20.61;64.43;100981.63;5024497;28;20033;-80
2023/07/27 00:52:34;;;;;;;5.03;2.47;;;;;;;20.54;64.85;100969.47;5017166;28;20395;-80
2023/07/27 00:55:04;;;;;;;5.47;2.25;;;;;;;20.53;65.09;100967.75;5016639;28;20033;-80
2023/07/27 00:57:32;;;;;;;5.30;2.75;;;;;;;20.07;67.15;100967.97;5025006;28;20045;-79
2023/07/27 01:00:01;;;;;;;4.38;2.60;;;;;;;19.92;68.41;100962.19;5030307;28;20086;-79
2023/07/27 01:02:32;;;;;;;4.47;2.70;;;;;;;19.94;68.33;100955.97;5022723;28;20041;-81
2023/07/27 01:05:17;;;;;;;4.60;2.55;;;;;;;19.99;68.46;100946.13;5020962;28;20048;-81
2023/07/27 01:07:42;;;;;;;;;;;;;;;20.00;69.04;100936.41;5016883;28;20037;-79
2023/07/27 01:10:08;;;;;;;4.07;2.58;;;;;;;20.12;68.59;100930.81;5015190;28;19914;-80
2023/07/27 01:13:07;;;;;;;5.57;3.00;;;;;;;19.87;70.06;100924.38;5013412;28;20033;-80
2023/07/27 01:15:54;;;;;;;4.70;3.00;;;;;;;19.84;70.09;100922.66;5004199;28;20037;-79
2023/07/27 01:18:45;;;;;;;4.57;3.17;;;;;;;19.74;70.42;100919.38;5013275;28;20041;-80
2023/07/27 01:21:16;;;;;;;5.13;2.95;;;;;;;19.79;70.62;100913.97;5012961;28;20045;-80
2023/07/27 01:24:00;;;;;;;5.13;2.90;;;;;;;19.72;71.21;100907.09;5014118;28;20034;-79
2023/07/27 01:26:44;;;;;;;5.07;2.90;;;;;;;19.64;71.87;100906.41;5014837;28;20029;-78
2023/07/27 01:29:31;;;;;;;3.90;2.40;;;;;;;19.65;71.59;100894.91;5015632;28;20030;-79
2023/07/27 01:31:57;;;;;;;5.75;2.80;;;;;;;20.02;69.98;100886.94;5015144;28;20053;-79
2023/07/27 01:34:31;;;;;;;4.00;2.50;;;;;;;19.99;70.11;100882.63;5015804;28;20038;-79
2023/07/27 01:37:00;;;;;;;;;;;;;;;20.00;69.96;100883.50;5016704;28;20048;-77
2023/07/27 01:39:28;;;;;;;3.80;2.15;;;;;;;19.88;69.74;100884.66;5021290;28;19940;-79
2023/07/27 01:41:59;;;;;;;4.38;2.15;;;;;;;19.96;69.78;100871.22;5024266;28;20073;-79
2023/07/27 01:44:29;;;;;;;2.75;1.70;;;;;;;19.82;70.20;100868.94;5019547;28;20503;-79
2023/07/27 01:46:56;;;;;;;3.67;2.00;;;;;;;19.78;70.22;100862.84;5022455;28;20570;-78
2023/07/27 01:49:23;;;;;;;4.40;2.22;;;;;;;19.79;70.29;100858.41;5026423;28;20061;-79
2023/07/27 01:51:50;;;;;;;3.72;1.98;;;;;;;19.88;70.36;100854.69;5017887;28;20029;-79
2023/07/27 01:54:16;;;;;;;3.08;2.00;;;;;;;19.77;70.75;100852.28;5015228;28;20030;-78
2023/07/27 01:56:44;;;;;;;3.60;2.17;;;;;;;19.55;71.67;100843.16;5015028;28;20037;-77
2023/07/27 01:59:09;;;;;;;3.63;2.28;;;;;;;19.52;71.43;100830.84;5015763;28;20069;-79
2023/07/27 02:01:44;;;;;;;4.18;2.13;;;;;;;19.72;70.75;100833.91;5014158;28;20030;-79
2023/07/27 02:04:13;;;;;;;5.13;2.47;;;;;;;19.68;71.13;100834.00;5016896;28;20065;-78
2023/07/27 02:06:38;;;;;;;3.80;2.22;;;;;;;19.49;71.90;100819.50;5016099;28;20094;-79
2023/07/27 02:09:07;;;;;;;3.97;2.50;;;;;;;19.71;71.60;100821.56;5019865;28;20064;-80
2023/07/27 02:11:33;;;;;;;3.88;2.55;;;;;;;19.57;72.54;100815.78;5018376;28;20038;-80
2023/07/27 02:14:42;;;;;;;4.65;2.65;;;;;;;19.67;72.23;100811.13;5026255;28;20025;-78
2023/07/27 02:17:34;;;;;;;4.55;2.60;;;;;;;19.17;74.35;100799.06;5021039;28;20045;-78
2023/07/27 02:20:02;;;;;;;4.00;2.58;;;;;;;19.40;73.61;100797.63;5030551;28;20041;-78
2023/07/27 02:22:40;;;;;;;4.22;2.70;;;;;;;19.37;73.79;100788.91;5017025;28;20061;-80
2023/07/27 02:25:07;;;;;;;4.35;2.75;;;;;;;19.41;73.35;100778.22;5019344;28;20037;-81
2023/07/27 02:27:33;;;;;;;3.95;2.47;;;;;;;19.46;73.68;100767.53;5017514;28;20418;-81
2023/07/27 02:30:01;;;;;;;3.80;2.58;;;;;;;19.55;73.31;100761.16;5015797;28;20042;-81
2023/07/27 02:32:26;;;;;;;4.03;2.38;;;;;;;19.14;74.69;100749.81;5019216;28;20042;-81
2023/07/27 02:34:55;;;;;;;4.45;3.00;;;;;;;19.09;75.19;100741.09;5019806;28;20030;-82
2023/07/27 02:37:26;;;;;;;4.15;2.75;;;;;;;19.42;74.20;100742.94;5017668;28;20388;-81
2023/07/27 02:40:01;;;;;;;4.28;2.70;;;;;;;19.63;73.54;100728.34;5019887;28;20033;-81
2023/07/27 02:42:29;;;;;;;5.25;3.00;;;;;;;19.72;73.19;100728.09;5019619;28;20037;-79
2023/07/27 02:44:57;;;;;;;5.05;3.08;;;;;;;19.54;74.09;100720.63;5019773;28;20033;-80
2023/07/27 02:47:25;;;;;;;5.03;3.05;;;;;;;19.74;73.41;100715.69;5022079;28;20399;-79
2023/07/27 02:49:51;;;;;;;4.65;3.10;;;;;;;19.68;73.84;100715.00;5021379;28;20034;-79
2023/07/27 02:52:17;;;;;;;5.07;3.40;;;;;;;19.56;74.22;100710.03;5020735;28;20049;-79
2023/07/27 02:54:42;;;;;;;5.10;3.15;;;;;;;19.64;73.93;100706.25;5021270;28;20034;-78
2023/07/27 02:57:07;;;;;;;5.68;3.38;;;;;;;19.69;73.56;100704.38;5022094;28;20065;-79
2023/07/27 02:59:33;;;;;;;5.93;4.05;;;;;;;19.66;73.87;100693.00;5021697;28;20030;-79
2023/07/27 03:02:01;;;;;;;7.55;4.05;;;;;;;19.67;73.47;100692.97;5022338;28;20107;-79
2023/07/27 03:04:26;;;;;;;7.13;4.38;;;;;;;19.52;73.96;100692.53;5023589;28;20045;-80
2023/07/27 03:06:52;;;;;;;7.88;4.40;;;;;;;19.56;73.85;100684.44;5025290;28;20030;-81
2023/07/27 03:09:17;;;;;;;7.28;4.38;;;;;;;19.58;74.06;100692.34;5029132;28;20034;-80
2023/07/27 03:11:47;;;;;;;7.60;4.55;;;;;;;19.54;74.15;100683.63;5029797;28;20057;-80
2023/07/27 03:14:16;;;;;;;7.22;4.47;;;;;;;19.58;74.11;100673.84;5026274;28;20045;-79
2023/07/27 03:16:41;;;;;;;6.45;4.38;;;;;;;19.49;74.07;100667.00;5020932;28;20038;-80
2023/07/27 03:19:07;;;;;;;6.03;4.47;;;;;;;19.46;74.21;100658.31;5021300;28;20026;-79
2023/07/27 03:21:35;;;;;;;6.85;4.90;;;;;;;19.32;74.75;100655.97;5022923;28;20034;-80
2023/07/27 03:24:04;;;;;;;6.90;4.60;;;;;;;19.54;73.98;100657.16;5026408;28;20034;-79
2023/07/27 03:26:29;;;;;;;6.65;4.95;;;;;;;19.43;74.04;100649.50;5025847;28;20038;-79
2023/07/27 03:28:54;;;;;;;7.88;4.88;;;;;;;19.48;74.07;100644.13;5022932;28;20033;-80
2023/07/27 03:31:23;;;;;;;8.48;5.00;;;;;;;19.63;73.63;100635.78;5018222;28;20373;-79
2023/07/27 03:33:49;;;;;;;6.30;4.55;;;;;;;19.59;73.61;100633.25;5017055;28;20124;-81
2023/07/27 03:36:19;;;;;;;8.30;5.60;;;;;;;19.51;73.83;100622.03;5018964;28;20064;-81
2023/07/27 03:38:45;;;;;;;8.40;5.20;;;;;;;19.42;74.14;100621.31;5017627;28;20093;-80
2023/07/27 03:41:14;;;;;;;7.10;5.10;;;;;;;19.41;74.06;100618.72;5017813;28;20076;-80
2023/07/27 03:43:42;;;;;;;8.35;5.60;;;;;;;19.51;73.99;100620.25;5018144;28;20040;-82
2023/07/27 03:46:07;;;;;;;7.80;5.50;;;;;;;19.53;74.12;100620.19;5018220;28;20042;-80
2023/07/27 03:48:33;;;;;;;7.65;5.13;;;;;;;19.67;73.77;100616.25;5018568;28;20153;-80
2023/07/27 03:51:02;;;;;;;9.32;5.60;;;;;;;19.58;73.92;100603.28;5018139;28;20037;-79
2023/07/27 03:53:31;;;;;;;9.82;5.53;;;;;;;19.62;73.93;100601.44;5017873;28;20403;-81
2023/07/27 03:56:01;;;;;;;7.50;5.28;;;;;;;19.54;74.25;100604.28;5017564;28;20045;-81
2023/07/27 03:58:32;;;;;;;7.65;5.38;;;;;;;19.61;74.02;100597.94;5018382;28;20065;-82
2023/07/27 04:00:58;;;;;;;8.15;5.30;;;;;;;19.55;74.47;100587.53;5018530;28;20113;-81
2023/07/27 04:03:23;;;;;;;7.03;4.70;;;;;;;19.43;74.60;100590.47;5018791;28;20068;-81
2023/07/27 04:05:52;;;;;;;7.53;4.55;;;;;;;19.52;74.54;100586.75;5019375;28;20030;-81
2023/07/27 04:08:18;;;;;;;6.05;4.32;;;;;;;19.66;74.00;100587.22;5018912;28;20207;-82
2023/07/27 04:10:46;;;;;;;6.53;4.38;;;;;;;19.45;74.80;100583.38;5015360;28;20142;-81
2023/07/27 04:13:11;;;;;;;6.38;4.03;;;;;;;19.47;75.04;100575.41;5017698;28;20038;-80
2023/07/27 04:15:38;;;;;;;5.60;3.92;;;;;;;19.58;74.63;100571.56;5015791;28;20048;-81
2023/07/27 04:18:09;;;;;;;5.32;3.97;;;;;;;19.63;74.51;100571.44;5016523;28;20041;-80
2023/07/27 04:20:35;;;;;;;5.13;3.65;;;;;;;19.45;75.06;100570.16;5016888;28;20045;-81
2023/07/27 04:23:03;;;;;;;4.75;3.65;;;;;;;19.59;74.66;100567.13;5017126;28;20030;-80
2023/07/27 04:25:28;;;;;;;5.22;3.65;;;;;;;19.67;74.50;100570.44;5017742;28;20069;-81
2023/07/27 04:27:54;;;;;;;5.22;3.50;;;;;;;19.56;74.91;100561.94;5017786;28;20034;-82
2023/07/27 04:30:19;;;;;;;5.72;3.70;;;;;;;19.47;75.62;100563.06;5020153;28;20037;-81
2023/07/27 04:32:45;;;;;;;4.85;3.20;;;;;;;19.57;75.17;100556.63;5028556;28;20038;-78
2023/07/27 04:35:10;;;;;;;4.82;3.28;;;;;;;19.55;75.40;100554.91;5032195;28;20060;-80
2023/07/27 04:37:38;;;;;;;5.47;3.50;;;;;;;19.58;75.42;100552.19;5030629;28;20037;-81
2023/07/27 04:40:04;;;;;;;3.95;3.22;;;;;;;19.55;75.50;100545.22;5025177;28;20044;-81
2023/07/27 04:42:29;;;;;;;4.30;2.90;;;;;;;19.55;75.84;100547.84;5024637;28;20046;-82
2023/07/27 04:44:58;;;;;;;4.80;3.10;;;;;;;19.75;75.06;100544.63;5025149;28;20029;-79
2023/07/27 04:47:32;;;;;;;3.30;2.92;;;;;;;19.64;75.44;100530.88;5025223;28;20098;-81
2023/07/27 04:49:57;;;;;;;4.25;3.10;;;;;;;19.82;75.03;100530.31;5020226;28;20109;-81
2023/07/27 04:52:32;;;;;;;4.05;2.80;;;;;;;19.78;75.37;100531.31;5019681;28;20041;-81
2023/07/27 04:54:57;;;;;;;4.32;2.90;;;;;;;19.75;75.40;100527.00;5020645;28;20041;-80
2023/07/27 04:57:22;;;;;;;4.10;3.00;;;;;;;19.64;76.19;100521.13;5020926;28;20041;-81
2023/07/27 04:59:51;;;;;;;4.25;3.10;;;;;;;19.65;76.23;100512.28;5020541;28;20475;-81
2023/07/27 05:02:16;;;;;;;4.30;3.28;;;;;;;19.70;76.53;100513.00;5020717;28;20045;-83
2023/07/27 05:04:44;;;;;;;3.70;3.05;;;;;;;19.83;76.02;100511.75;5020201;28;20034;-82
2023/07/27 05:07:28;;;;;;;3.75;2.90;;;;;;;19.92;75.90;100496.50;5022468;28;20274;-82
2023/07/27 05:09:53;;;;;;;4.80;2.90;;;;;;;20.00;75.52;100508.59;5022051;28;20152;-82
2023/07/27 05:12:28;;;;;;;4.80;2.92;;;;;;;20.06;75.97;100508.41;5021899;28;20048;-82
2023/07/27 05:14:54;;;;;;;3.40;2.80;;;;;;;19.87;76.60;100501.09;5025796;28;20049;-82
2023/07/27 05:17:25;;;;;;;3.90;2.72;;;;;;;19.98;76.34;100491.88;5026048;28;20263;-82
2023/07/27 05:19:53;;;;;;;3.25;2.50;;;;;;;20.14;75.88;100493.13;5025891;28;20030;-81
2023/07/27 05:22:21;;;;;;;3.72;2.83;;;;;;;20.16;76.13;100487.78;5030263;28;20037;-81
2023/07/27 05:24:53;;;;;;;2.72;2.40;;;;;;;20.17;76.03;100490.41;5026106;28;20076;-80
2023/07/27 05:27:18;;;;;;;3.08;2.40;;;;;;;19.98;76.63;100483.94;5030231;28;20033;-81
2023/07/27 05:29:49;;;;;;;4.75;2.45;;;;;;;20.03;77.20;100487.31;5029638;28;20037;-82
2023/07/27 05:32:18;;;;;;;2.80;2.20;;;;;;;20.16;76.71;100483.38;5026113;28;20037;-80
2023/07/27 05:34:43;;;;;;;2.90;2.20;;;;;;;20.12;77.27;100486.19;5022334;28;20064;-80
2023/07/27 05:37:08;;;;;;;2.92;2.03;;;;;;;20.22;77.00;100483.19;5019569;28;20065;-83
2023/07/27 05:39:40;;;;;;;2.80;1.92;;;;;;;20.18;76.92;100485.97;5015699;28;20030;-83
2023/07/27 05:42:05;;;;;;;2.47;1.90;;;;;;;20.29;77.37;100491.78;5014837;28;20041;-82
2023/07/27 05:44:33;;;;;;;2.72;1.70;;;;;;;20.41;77.01;100480.81;5014706;28;20036;-82
2023/07/27 05:47:03;;;;;;;2.00;1.77;;;;;;;20.49;76.66;100477.94;5014540;28;20123;-82
2023/07/27 05:49:28;;;;;;;2.63;1.70;;;;;;;20.60;76.21;100487.25;5015899;28;20034;-81
2023/07/27 05:51:57;;;;;;;2.42;1.80;;;;;;;20.55;76.69;100475.06;5013092;28;20105;-82
2023/07/27 05:54:28;;;;;;;1.85;1.60;;;;;;;20.55;76.87;100477.72;5014182;28;20080;-80
2023/07/27 05:56:56;;;;;;;1.70;1.60;;;;;;;20.45;77.12;100466.56;5013719;28;20609;-80
2023/07/27 05:59:21;;;;;;;2.28;1.70;;;;;;;20.61;76.92;100459.81;5014782;28;20034;-80
2023/07/27 06:01:53;;;;;;;1.90;1.70;;;;;;;20.59;77.37;100459.03;5013971;28;20469;-80
2023/07/27 06:04:23;;;;;;;1.90;1.70;;;;;;;20.76;76.63;100455.78;5014726;28;20046;-80
2023/07/27 06:06:48;;;;;;;1.75;1.60;;;;;;;20.61;77.12;100454.50;5012976;28;20034;-80
2023/07/27 06:09:14;;;;;;;2.15;1.63;;;;;;;20.80;76.71;100454.75;5013972;28;20041;-82
2023/07/27 06:11:43;;;;;;;1.85;1.60;;;;;;;20.79;76.80;100454.81;5014453;28;20037;-81
2023/07/27 06:14:08;;;;;;;1.50;1.30;;;;;;;20.82;77.08;100447.63;5013572;28;20047;-81
2023/07/27 06:16:34;;;;;;;1.80;1.40;;;;;;;20.52;77.64;100436.31;5013268;28;20038;-82
2023/07/27 06:19:11;;;;;;;1.70;1.27;;;;;;;20.72;77.77;100445.34;5013813;28;20492;-80
2023/07/27 06:21:36;;;;;;;3.05;1.30;;;;;;;20.69;78.09;100441.00;5012715;28;20045;-81
2023/07/27 06:24:02;;;;;;;1.98;1.23;;;;;;;20.77;77.51;100444.28;5013682;28;20476;-81
2023/07/27 06:26:34;;;;;;;3.22;1.30;;;;;;;20.82;77.64;100441.44;5013219;28;20073;-82
2023/07/27 06:28:59;;;;;;;3.28;1.35;;;;;;;20.94;77.31;100447.19;5014831;28;20037;-80
2023/07/27 06:31:24;;;;;;;3.50;1.40;;;;;;;20.97;77.42;100433.84;5016895;28;20038;-82
2023/07/27 06:33:52;;;;;;;2.40;1.33;;;;;;;20.95;77.82;100438.31;5014709;28;20041;-80
2023/07/27 06:36:21;;;;;;;2.15;1.25;;;;;;;20.82;78.34;100434.38;5015257;28;20045;-79
2023/07/27 06:38:49;;;;;;;3.00;1.40;;;;;;;20.92;78.08;100434.91;5015025;28;20042;-81
2023/07/27 06:41:15;;;;;;;2.42;1.40;;;;;;;20.40;80.07;100444.66;5014209;28;20029;-82
2023/07/27 06:43:43;;;;;;;2.85;1.20;;;;;;;20.68;79.48;100428.69;5013744;28;20411;-81
2023/07/27 06:46:09;;;;;;;2.20;1.40;;;;;;;20.69;80.07;100438.38;5015730;28;20041;-81
2023/07/27 06:48:37;;;;;;;3.00;1.25;;;;;;;20.92;79.63;100433.09;5012065;28;20038;-83
2023/07/27 06:51:02;;;;;;;2.95;1.20;;;;;;;21.05;78.86;100437.03;5013543;28;20303;-82
2023/07/27 06:53:27;;;;;;;2.17;1.33;;;;;;;21.03;79.23;100438.03;5016175;28;20041;-82
2023/07/27 06:55:53;;;;;;;3.22;1.35;;;;;;;20.99;78.94;100431.97;5015707;28;20527;-80
2023/07/27 06:58:24;;;;;;;4.95;1.23;;;;;;;21.03;79.90;100433.63;5018857;28;20093;-81
2023/07/27 07:00:49;;;;;;;5.85;1.30;;;;;;;21.18;79.25;100426.91;5017326;28;20042;-80
2023/07/27 07:03:15;;;;;;;3.25;0.93;;;;;;;20.86;79.93;100435.97;5018509;28;20205;-80
2023/07/27 07:05:40;;;;;;;3.13;1.00;;;;;;;21.01;79.18;100423.97;5017648;28;20048;-82
2023/07/27 07:08:09;;;;;;;3.80;1.08;;;;;;;21.09;79.50;100437.81;5018689;28;20038;-82
2023/07/27 07:10:34;;;;;;;3.13;1.25;;;;;;;21.16;79.79;100442.00;5017565;28;20064;-82
2023/07/27 07:13:00;;;;;;;4.20;1.10;;;;;;;21.03;79.47;100435.41;5020074;28;20026;-82
2023/07/27 07:15:25;;;;;;;5.70;1.10;;;;;;;21.44;78.12;100439.19;5020292;28;20038;-81
2023/07/27 07:17:51;;;;;;;5.88;1.20;;;;;;;21.10;79.34;100442.22;5018215;28;20034;-81
2023/07/27 07:20:19;;;;;;;3.95;1.23;;;;;;;21.37;78.71;100437.69;5017882;28;20506;-84
2023/07/27 07:22:47;;;;;;;5.40;1.20;;;;;;;21.20;78.97;100438.31;5017654;28;20060;-81
2023/07/27 07:25:19;;;;;;;4.05;1.10;;;;;;;21.34;78.60;100435.16;5018929;28;20089;-82
2023/07/27 07:27:47;;;;;;;4.68;1.10;;;;;;;21.54;78.85;100435.25;5017192;28;20045;-82
2023/07/27 07:30:13;;;;;;;4.00;1.35;;;;;;;21.65;78.85;100429.53;5017893;28;20032;-80
2023/07/27 07:32:38;;;;;;;4.72;1.20;;;;;;;21.54;79.48;100427.28;5017811;28;20475;-80
2023/07/27 07:35:07;;;;;;;4.47;1.23;;;;;;;21.35;78.98;100424.47;5018286;28;20524;-82
2023/07/27 07:37:32;;;;;;;3.55;1.13;;;;;;;21.67;78.23;100425.88;5017761;28;20053;-82
2023/07/27 07:40:00;;;;;;;3.50;1.10;;;;;;;21.85;77.45;100424.28;5017614;28;20030;-82
2023/07/27 07:42:32;;;;;;;3.72;1.10;;;;;;;21.76;77.63;100429.97;5019987;28;20041;-83
2023/07/27 07:45:00;;;;;;;3.05;1.10;;;;;;;21.76;77.79;100425.53;5020274;28;20515;-81
2023/07/27 07:47:25;;;;;;;3.45;0.90;;;;;;;21.79;77.70;100420.09;5020204;28;20034;-80
2023/07/27 07:49:51;;;;;;;2.85;0.90;;;;;;;21.69;78.13;100426.69;5017613;28;20045;-82
2023/07/27 07:52:19;;;;;;;2.70;1.00;;;;;;;21.62;78.37;100424.34;5017827;28;20030;-81
2023/07/27 07:54:45;;;;;;;2.63;1.00;;;;;;;21.63;78.32;100423.41;5017527;28;20045;-81
2023/07/27 07:57:13;;;;;;;4.43;1.20;;;;;;;21.76;78.31;100422.88;5023631;28;20034;-82
2023/07/27 07:59:39;;;;;;;4.75;1.17;;;;;;;21.70;77.55;100427.56;5020671;28;20411;-84
2023/07/27 08:02:04;;;;;;;3.67;1.10;;;;;;;21.70;78.39;100427.56;5017753;28;20029;-82
2023/07/27 08:04:32;;;;;;;2.75;1.00;;;;;;;21.74;78.49;100426.50;5018570;28;20034;-81
2023/07/27 08:07:00;;;;;;;2.67;1.00;;;;;;;21.83;78.23;100423.50;5016625;28;20030;-81
2023/07/27 08:09:26;;;;;;;2.15;1.00;;;;;;;22.06;77.51;100409.34;5033051;28;20045;-79
2023/07/27 08:12:04;;;;;;;4.32;1.30;;;;;;;21.95;78.33;100414.19;5034701;28;20297;-80
2023/07/27 08:14:29;;;;;;;4.53;1.33;;;;;;;21.72;78.15;100407.13;5020398;28;20052;-83
2023/07/27 08:17:09;;;;;;;6.20;1.48;;;;;;;21.75;78.57;100399.06;5015886;28;20395;-82
2023/07/27 08:19:35;;;;;;;3.47;1.17;;;;;;;22.13;77.09;100406.38;5016569;28;20091;-82
2023/07/27 08:22:00;;;;;;;4.50;1.00;;;;;;;22.20;78.00;100407.81;5015971;28;20411;-82
2023/07/27 08:24:32;;;;;;;3.45;1.10;;;;;;;22.09;77.93;100404.75;5017365;28;20056;-80
2023/07/27 08:26:59;;;;;;;4.32;1.20;;;;;;;22.02;78.07;100402.41;5016905;28;20038;-81
2023/07/27 08:29:27;;;;;;;7.38;1.20;;;;;;;22.33;77.09;100409.94;5017068;28;20380;-80
2023/07/27 08:31:55;;;;;;;3.50;1.20;;;;;;;22.53;77.06;100399.34;5017813;28;20098;-80
2023/07/27 08:34:24;;;;;;;6.32;1.30;;;;;;;22.32;77.04;100402.94;5018803;28;20034;-81
2023/07/27 08:36:58;;;;;;;4.32;1.48;;;;;;;22.58;77.07;100398.22;5020432;28;20038;-81
2023/07/27 08:39:37;;;;;;;6.47;1.20;;;;;;;22.57;77.17;100399.16;5016686;28;20509;-80
2023/07/27 08:42:02;;;;;;;4.80;1.45;;;;;;;22.48;76.94;100396.91;5014734;28;20029;-81
2023/07/27 08:44:28;;;;;;;7.72;1.27;;;;;;;22.59;76.43;100399.09;5028057;28;20026;-79
2023/07/27 08:47:04;;;;;;;4.90;1.23;;;;;;;22.48;77.02;100393.38;5034278;28;20329;-79
2023/07/27 08:49:37;;;;;;;4.57;1.50;;;;;;;22.56;76.67;100401.88;5027808;28;20391;-80
2023/07/27 08:52:03;;;;;;;4.57;1.30;;;;;;;22.58;77.33;100402.66;5016041;28;20030;-81
2023/07/27 08:54:29;;;;;;;5.22;1.27;;;;;;;22.76;76.29;100403.69;5019011;28;20041;-80
2023/07/27 08:57:04;;;;;;;3.25;1.05;;;;;;;22.31;76.95;100409.16;5019111;28;20056;-82
2023/07/27 08:59:29;;;;;;;4.30;1.38;;;;;;;22.63;76.58;100406.84;5017684;28;20076;-82
2023/07/27 09:02:26;;;;;;;5.47;1.40;;;;;;;22.54;77.16;100403.75;5015874;28;20413;-81
2023/07/27 09:04:51;;;;;;;4.40;1.20;;;;;;;22.82;75.71;100406.06;5022173;28;20057;-81
2023/07/27 09:07:26;;;;;;;3.92;1.10;;;;;;;22.77;75.85;100403.63;5025953;28;20484;-80
2023/07/27 09:09:57;;;;;;;3.47;0.95;;;;;;;22.56;77.20;100410.72;5023142;28;20042;-81
2023/07/27 09:12:26;;;;;;;3.13;1.05;;;;;;;22.58;77.19;100406.19;5020712;28;20033;-79
2023/07/27 09:14:58;;;;;;;3.75;0.80;;;;;;;22.58;77.52;100410.63;5029109;28;20042;-82
2023/07/27 09:17:26;;;;;;;3.40;0.70;;;;;;;22.67;77.72;100405.81;5017402;28;20104;-82
2023/07/27 09:19:52;;;;;;;1.65;0.70;;;;;;;22.46;77.23;100403.19;5019112;28;20091;-81
2023/07/27 09:22:17;;;;;;;3.97;0.80;;;;;;;22.77;77.26;100400.97;5020361;28;20113;-79
2023/07/27 09:24:43;;;;;;;2.33;0.80;;;;;;;22.88;77.41;100406.66;5025312;28;20037;-79
2023/07/27 09:27:18;;;;;;;3.28;0.80;;;;;;;22.81;77.17;100409.69;5024248;28;20446;-80
2023/07/27 09:29:44;;;;;;;3.05;0.80;;;;;;;22.91;76.24;100409.19;5019837;28;20065;-81
2023/07/27 09:32:15;;;;;;;2.58;0.70;;;;;;;22.69;77.14;100408.38;5020993;28;20033;-80
2023/07/27 09:34:40;;;;;;;2.63;1.00;;;;;;;22.89;76.48;100404.88;5020532;28;20041;-80
2023/07/27 09:37:15;;;;;;;3.92;0.90;;;;;;;22.87;75.94;100396.97;5020986;28;20034;-82
2023/07/27 09:39:43;;;;;;;3.33;0.80;;;;;;;22.93;77.13;100409.13;5018758;28;20049;-80
2023/07/27 09:42:14;;;;;;;2.83;0.85;;;;;;;22.82;78.08;100398.09;5018517;28;20093;-81
2023/07/27 09:44:48;;;;;;;2.95;0.80;;;;;;;22.78;78.17;100405.34;5018289;28;20041;-81
2023/07/27 09:47:30;;;;;;;3.20;0.80;;;;;;;23.02;77.13;100411.38;5018910;28;20506;-82
2023/07/27 09:50:00;;;;;;;2.75;1.00;;;;;;;22.85;77.04;100405.94;5016097;28;20489;-82
2023/07/27 09:52:26;;;;;;;3.67;1.00;;;;;;;22.57;78.32;100414.22;5016726;28;20403;-82
2023/07/27 09:54:55;;;;;;;4.07;0.90;;;;;;;22.49;78.47;100408.38;5016165;28;20033;-82
2023/07/27 09:57:27;;;;;;;3.50;0.95;;;;;;;22.37;78.54;100415.09;5016800;28;20042;-82
2023/07/27 09:59:55;;;;;;;3.25;0.90;;;;;;;22.55;78.38;100414.31;5015446;28;20065;-82
2023/07/27 10:02:30;;;;;;;2.53;0.82;;;;;;;22.64;77.39;100408.56;5018244;28;20038;-81
2023/07/27 10:04:55;;;;;;;2.72;0.73;;;;;;;22.63;77.18;100405.97;5024924;28;20049;-80
2023/07/27 10:07:27;;;;;;;3.38;0.80;;;;;;;22.54;78.35;100409.91;5027389;28;20037;-81
2023/07/27 10:10:31;;;;;;;3.67;1.00;;;;;;;22.77;78.37;100400.09;5018101;28;20121;-82
2023/07/27 10:12:57;;;;;;;4.82;1.10;;;;;;;22.86;78.26;100400.56;5015981;28;20116;-82
2023/07/27 10:15:28;;;;;;;4.95;0.88;;;;;;;22.88;78.45;100395.16;5021072;28;20026;-81
2023/07/27 10:17:59;;;;;;;2.72;0.90;;;;;;;23.27;76.62;100403.13;5026808;28;20068;-84
2023/07/27 10:20:35;;;;;;;4.00;0.93;;;;;;;23.22;76.54;100405.16;5022002;28;20154;-80
2023/07/27 10:23:20;;;;;;;3.15;0.95;;;;;;;22.98;77.51;100410.66;5013479;28;20079;-81
2023/07/27 10:26:07;;;;;;;3.67;1.00;;;;;;;22.84;77.88;100414.84;5015364;28;20562;-81
2023/07/27 10:28:47;;;;;;;2.35;0.80;;;;;;;23.03;77.24;100408.66;5017934;28;20348;-81
2023/07/27 10:31:41;;;;;;;3.00;0.80;;;;;;;23.38;77.06;100411.47;5023288;28;20058;-84
2023/07/27 10:34:16;;;;;;;3.60;0.90;;;;;;;23.44;75.36;100412.06;5023338;28;20076;-84
2023/07/27 10:36:47;;;;;;;2.67;0.73;;;;;;;23.24;76.51;100406.78;5022043;28;20147;-84
2023/07/27 10:39:16;;;;;;;2.22;0.70;;;;;;;23.08;75.89;100408.44;5024170;28;20097;-83
2023/07/27 10:41:59;;;;;;;1.80;0.68;;;;;;;22.89;77.29;100413.72;5023643;28;20037;-84
2023/07/27 10:44:45;;;;;;;3.60;0.80;;;;;;;23.15;76.35;100412.53;5025658;28;20104;-83
2023/07/27 10:47:39;;;;;;;1.80;0.70;;;;;;;23.10;76.85;100419.88;5024708;28;20511;-83
2023/07/27 10:50:08;;;;;;;;;;;;;;;23.05;77.43;100404.09;5031835;28;20034;-79
2023/07/27 10:52:39;;;;;;;2.45;0.70;;;;;;;23.04;77.68;100412.19;5036102;28;20267;-82
2023/07/27 10:55:06;;;;;;;1.60;0.60;;;;;;;23.10;77.49;100411.03;5036415;28;20038;-82
2023/07/27 10:57:33;;;;;;;2.53;0.70;;;;;;;23.43;76.72;100410.31;5035937;28;20022;-82
2023/07/27 10:59:59;;;;;;;2.38;0.60;;;;;;;23.54;75.29;100407.22;5031045;28;20115;-80
2023/07/27 11:02:28;;;;;;;1.52;0.60;;;;;;;23.15;76.09;100415.19;5035802;28;20048;-80
2023/07/27 11:05:02;;;;;;;1.50;0.60;;;;;;;23.24;76.76;100417.44;5024459;28;20053;-82
2023/07/27 11:07:33;;;;;;;1.88;0.60;;;;;;;23.01;77.30;100409.63;5020566;28;20034;-81
2023/07/27 11:10:28;;;;;;;2.67;0.70;;;;;;;22.89;77.90;100412.84;5020294;28;21192;-82
2023/07/27 11:12:57;;;;;;;2.00;0.77;;;;;;;22.81;78.33;100404.38;5020993;28;20110;-80
2023/07/27 11:15:29;;;;;;;1.58;0.65;;;;;;;22.90;77.42;100407.47;5020404;28;20052;-79
2023/07/27 11:18:01;;;;;;;4.53;0.98;;;;;;;23.08;77.09;100407.56;5030274;28;20092;-82
2023/07/27 11:20:30;;;;;;;1.25;0.70;;;;;;;23.31;76.90;100424.19;5021753;28;20065;-84
2023/07/27 11:23:02;;;;;;;4.57;0.70;;;;;;;23.35;76.47;100412.50;5018443;28;20053;-83
2023/07/27 11:25:32;;;;;;;1.35;0.90;;;;;;;23.68;75.23;100411.84;5020398;28;20049;-84
2023/07/27 11:28:04;;;;;;;1.73;0.88;;;;;;;23.57;75.82;100416.84;5017582;28;20045;-85
2023/07/27 11:30:29;;;;;;;1.85;0.70;;;;;;;23.93;74.47;100411.53;5019527;28;20041;-81
2023/07/27 11:33:02;;;;;;;2.72;0.90;;;;;;;23.67;74.46;100408.34;5017424;28;20041;-83
2023/07/27 11:35:44;;;;;;;1.70;0.80;;;;;;;23.62;75.06;100414.81;5021893;28;20049;-81
2023/07/27 11:38:10;;;;;;;2.17;0.80;;;;;;;23.27;74.86;100413.78;5022797;28;20490;-84